createdAt,value
2019-03-20T00:00:28.271Z,99.90
2019-03-20T00:02:57.589Z,99.90
2019-03-20T00:05:26.665Z,99.90
2019-03-20T00:07:56.564Z,99.90
2019-03-20T00:10:26.996Z,99.90
2019-03-20T00:12:56.269Z,99.90
2019-03-20T00:15:25.891Z,99.90
2019-03-20T00:17:54.894Z,99.90
2019-03-20T00:20:23.983Z,99.90
2019-03-20T00:22:52.885Z,99.90
2019-03-20T00:25:22.119Z,99.90
2019-03-20T00:27:51.122Z,99.90
2019-03-20T00:30:20.230Z,99.90
2019-03-20T00:32:49.245Z,99.90
2019-03-20T00:35:18.178Z,99.90
2019-03-20T00:37:47.101Z,99.90
2019-03-20T00:40:16.290Z,99.90
2019-03-20T00:42:45.534Z,99.90
2019-03-20T00:45:15.177Z,99.90
2019-03-20T00:47:44.512Z,99.90
2019-03-20T00:50:14.370Z,99.90
2019-03-20T00:52:43.403Z,99.90
2019-03-20T00:55:12.838Z,99.90
2019-03-20T00:57:42.254Z,99.90
2019-03-20T01:00:14.145Z,99.90
2019-03-20T01:02:43.124Z,99.90
2019-03-20T01:05:13.085Z,99.90
2019-03-20T01:07:42.157Z,99.90
2019-03-20T01:10:12.461Z,99.90
2019-03-20T01:12:41.458Z,99.90
2019-03-20T01:15:10.529Z,99.90
2019-03-20T01:17:39.858Z,99.90
2019-03-20T01:20:09.631Z,99.90
2019-03-20T01:22:38.746Z,99.90
2019-03-20T01:25:08.128Z,99.90
2019-03-20T01:27:37.121Z,99.90
2019-03-20T01:30:07.017Z,99.90
2019-03-20T01:32:35.943Z,99.90
2019-03-20T01:35:05.738Z,99.90
2019-03-20T01:37:34.675Z,99.90
2019-03-20T01:40:03.704Z,99.90
2019-03-20T01:42:32.708Z,99.90
2019-03-20T01:45:02.049Z,99.90
2019-03-20T01:47:30.950Z,99.90
2019-03-20T01:49:59.917Z,99.90
2019-03-20T01:52:28.744Z,99.90
2019-03-20T01:54:57.606Z,99.90
2019-03-20T01:57:26.597Z,99.90
2019-03-20T01:59:55.778Z,99.90
2019-03-20T02:02:24.738Z,99.90
2019-03-20T02:04:53.648Z,99.90
2019-03-20T02:07:22.580Z,99.90
2019-03-20T02:09:51.877Z,99.90
2019-03-20T02:12:20.880Z,99.90
2019-03-20T02:14:49.903Z,99.90
2019-03-20T02:17:18.811Z,99.90
2019-03-20T02:19:47.737Z,99.90
2019-03-20T02:22:16.566Z,99.90
2019-03-20T02:24:45.578Z,99.90
2019-03-20T02:27:14.525Z,99.90
2019-03-20T02:29:44.389Z,99.90
2019-03-20T02:32:13.327Z,99.90
2019-03-20T02:34:42.247Z,99.90
2019-03-20T02:37:11.202Z,99.90
2019-03-20T02:39:40.117Z,99.90
2019-03-20T02:42:08.986Z,99.90
2019-03-20T02:44:37.907Z,99.90
2019-03-20T02:47:06.846Z,99.90
2019-03-20T02:49:35.805Z,99.90
2019-03-20T02:52:05.671Z,99.90
2019-03-20T02:54:34.587Z,99.90
2019-03-20T02:57:03.670Z,99.90
2019-03-20T02:59:32.601Z,99.90
2019-03-20T03:02:01.883Z,99.90
2019-03-20T03:04:30.819Z,99.90
2019-03-20T03:06:59.780Z,99.90
2019-03-20T03:09:28.710Z,99.90
2019-03-20T03:11:57.903Z,99.90
2019-03-20T03:14:26.829Z,99.90
2019-03-20T03:16:56.123Z,99.90
2019-03-20T03:19:25.348Z,99.90
2019-03-20T03:21:54.304Z,99.90
2019-03-20T03:24:23.338Z,99.90
2019-03-20T03:26:52.239Z,99.90
2019-03-20T03:29:21.431Z,99.90
2019-03-20T03:31:50.458Z,99.90
2019-03-20T03:34:19.388Z,99.90
2019-03-20T03:36:48.396Z,99.90
2019-03-20T03:39:17.575Z,99.90
2019-03-20T03:41:46.656Z,99.90
2019-03-20T03:44:15.578Z,99.90
2019-03-20T03:46:44.538Z,99.90
2019-03-20T03:49:13.796Z,99.90
2019-03-20T03:51:42.719Z,99.90
2019-03-20T03:54:11.631Z,99.90
2019-03-20T03:56:40.654Z,99.90
2019-03-20T03:59:09.727Z,99.90
2019-03-20T04:01:39.394Z,99.90
2019-03-20T04:04:08.364Z,99.90
2019-03-20T04:06:37.347Z,99.90
2019-03-20T04:09:07.709Z,99.90
2019-03-20T04:11:36.731Z,99.90
2019-03-20T04:14:05.795Z,99.90
2019-03-20T04:16:34.902Z,99.90
2019-03-20T04:19:03.895Z,99.90
2019-03-20T04:21:33.121Z,99.90
2019-03-20T04:24:02.134Z,99.90
2019-03-20T04:26:31.372Z,99.90
2019-03-20T04:29:00.319Z,99.90
2019-03-20T04:31:29.271Z,99.90
2019-03-20T04:33:58.317Z,99.90
2019-03-20T04:36:27.301Z,99.90
2019-03-20T04:38:56.221Z,99.90
2019-03-20T04:41:25.139Z,99.90
2019-03-20T04:43:54.086Z,99.90
2019-03-20T04:46:22.993Z,99.90
2019-03-20T04:48:52.211Z,99.90
2019-03-20T04:51:21.155Z,99.90
2019-03-20T04:53:50.127Z,99.90
2019-03-20T04:56:19.071Z,99.90
2019-03-20T04:58:48.011Z,99.90
2019-03-20T05:01:17.191Z,99.90
2019-03-20T05:03:46.153Z,99.90
2019-03-20T05:06:15.399Z,99.90
2019-03-20T05:08:44.335Z,99.90
2019-03-20T05:11:13.272Z,99.90
2019-03-20T05:13:42.284Z,99.90
2019-03-20T05:16:11.272Z,99.90
2019-03-20T05:18:40.214Z,99.90
2019-03-20T05:21:09.208Z,99.90
2019-03-20T05:23:38.174Z,99.90
2019-03-20T05:26:07.412Z,99.90
2019-03-20T05:28:36.379Z,99.90
2019-03-20T05:31:05.382Z,99.90
2019-03-20T05:33:34.699Z,99.90
2019-03-20T05:36:03.775Z,99.90
2019-03-20T05:38:32.742Z,99.90
2019-03-20T05:41:01.632Z,99.90
2019-03-20T05:43:30.587Z,99.90
2019-03-20T05:46:00.481Z,99.90
2019-03-20T05:48:29.719Z,99.90
2019-03-20T05:50:58.643Z,99.90
2019-03-20T05:53:27.612Z,99.90
2019-03-20T05:55:56.864Z,99.90
2019-03-20T05:58:25.831Z,99.90
2019-03-20T06:00:54.817Z,99.90
2019-03-20T06:03:23.770Z,99.90
2019-03-20T06:05:52.715Z,99.90
2019-03-20T06:08:21.684Z,99.90
2019-03-20T06:10:50.692Z,99.90
2019-03-20T06:13:19.952Z,99.90
2019-03-20T06:15:48.956Z,99.90
2019-03-20T06:18:17.923Z,99.90
2019-03-20T06:20:46.851Z,99.90
2019-03-20T06:23:16.082Z,99.90
2019-03-20T06:25:45.268Z,99.90
2019-03-20T06:28:14.195Z,99.90
2019-03-20T06:30:43.111Z,99.90
2019-03-20T06:33:12.376Z,99.90
2019-03-20T06:35:41.397Z,99.90
2019-03-20T06:38:10.642Z,99.90
2019-03-20T06:40:39.937Z,99.90
2019-03-20T06:43:08.855Z,99.90
2019-03-20T06:45:38.124Z,99.90
2019-03-20T06:48:07.054Z,99.90
2019-03-20T06:50:36.004Z,99.90
2019-03-20T06:53:05.163Z,99.90
2019-03-20T06:55:34.115Z,99.90
2019-03-20T06:58:03.455Z,99.90
2019-03-20T07:01:04.466Z,99.90
2019-03-20T07:04:17.772Z,99.90
2019-03-20T07:07:15.395Z,99.90
2019-03-20T07:09:49.173Z,99.90
2019-03-20T07:12:18.091Z,99.90
2019-03-20T07:14:47.229Z,99.90
2019-03-20T07:17:16.139Z,99.90
2019-03-20T07:19:45.415Z,99.90
2019-03-20T07:22:14.476Z,99.90
2019-03-20T07:24:43.422Z,99.90
2019-03-20T07:27:12.343Z,99.90
2019-03-20T07:29:41.290Z,99.90
2019-03-20T07:32:10.623Z,99.90
2019-03-20T07:34:39.651Z,80.90
2019-03-20T07:37:08.848Z,59.10
2019-03-20T07:39:38.055Z,48.80
2019-03-20T07:42:07.547Z,43.90
2019-03-20T07:44:36.578Z,41.10
2019-03-20T07:47:05.571Z,38.10
2019-03-20T07:49:34.883Z,36.40
2019-03-20T07:52:03.894Z,35.80
2019-03-20T07:54:32.839Z,33.80
2019-03-20T07:57:01.883Z,33.50
2019-03-20T07:59:30.864Z,34.30
2019-03-20T08:01:59.871Z,35.20
2019-03-20T08:04:28.830Z,34.90
2019-03-20T08:06:57.747Z,34.50
2019-03-20T08:09:26.718Z,35.80
2019-03-20T08:11:55.631Z,34.10
2019-03-20T08:14:24.866Z,33.60
2019-03-20T08:16:53.780Z,33.30
2019-03-20T08:19:23.367Z,33.00
2019-03-20T08:21:52.287Z,31.90
2019-03-20T08:24:21.301Z,33.60
2019-03-20T08:26:50.514Z,32.40
2019-03-20T08:29:19.782Z,31.80
2019-03-20T08:31:49.004Z,31.60
2019-03-20T08:34:17.940Z,32.50
2019-03-20T08:36:47.095Z,32.50
2019-03-20T08:39:16.731Z,32.90
2019-03-20T08:41:45.723Z,34.50
2019-03-20T08:44:14.986Z,33.90
2019-03-20T08:46:44.279Z,32.20
2019-03-20T08:49:13.210Z,33.10
2019-03-20T08:51:42.157Z,33.60
2019-03-20T08:54:11.058Z,33.50
2019-03-20T08:56:39.991Z,33.90
2019-03-20T08:59:09.001Z,33.00
2019-03-20T09:01:38.249Z,33.80
2019-03-20T09:04:07.742Z,33.80
2019-03-20T09:06:36.754Z,34.00
2019-03-20T09:09:08.296Z,34.10
2019-03-20T09:11:37.247Z,32.50
2019-03-20T09:14:06.187Z,32.40
2019-03-20T09:16:35.803Z,33.70
2019-03-20T09:19:05.170Z,33.90
2019-03-20T09:21:34.188Z,33.70
2019-03-20T09:24:03.099Z,33.60
2019-03-20T09:26:32.118Z,33.70
2019-03-20T09:29:01.461Z,33.70
2019-03-20T09:31:30.675Z,34.60
2019-03-20T09:33:59.633Z,34.40
2019-03-20T09:36:28.583Z,36.30
2019-03-20T09:38:57.606Z,35.70
2019-03-20T09:41:26.538Z,35.50
2019-03-20T09:43:55.719Z,35.30
2019-03-20T09:46:24.651Z,35.10
2019-03-20T09:48:53.663Z,34.80
2019-03-20T09:51:22.609Z,35.10
2019-03-20T09:53:51.888Z,34.60
2019-03-20T09:56:20.822Z,38.30
2019-03-20T09:58:49.769Z,37.30
2019-03-20T10:01:18.699Z,38.90
2019-03-20T10:03:47.621Z,40.40
2019-03-20T10:06:16.622Z,43.10
2019-03-20T10:08:53.820Z,45.10
2019-03-20T10:11:16.122Z,46.30
2019-03-20T10:13:45.398Z,49.60
2019-03-20T10:16:14.628Z,51.20
2019-03-20T10:18:43.952Z,52.10
2019-03-20T10:21:13.314Z,50.60
2019-03-20T10:23:42.603Z,51.50
2019-03-20T10:26:11.852Z,51.80
2019-03-20T10:28:40.815Z,53.50
2019-03-20T10:31:09.723Z,51.60
2019-03-20T10:33:38.699Z,51.80
2019-03-20T10:36:07.680Z,50.90
2019-03-20T10:38:36.994Z,51.10
2019-03-20T10:41:06.506Z,50.50
2019-03-20T10:43:35.442Z,51.90
2019-03-20T10:46:04.846Z,51.60
2019-03-20T10:48:34.021Z,53.10
2019-03-20T10:51:02.954Z,50.70
2019-03-20T10:53:31.886Z,50.40
2019-03-20T10:56:00.822Z,53.40
2019-03-20T10:58:30.071Z,53.00
2019-03-20T11:00:59.217Z,53.60
2019-03-20T11:03:28.195Z,53.10
2019-03-20T11:05:57.148Z,52.50
2019-03-20T11:08:26.398Z,52.20
2019-03-20T11:10:55.430Z,52.60
2019-03-20T11:13:24.458Z,51.10
2019-03-20T11:15:53.438Z,51.20
2019-03-20T11:18:22.413Z,51.50
2019-03-20T11:20:53.490Z,51.40
2019-03-20T11:23:22.224Z,51.70
2019-03-20T11:25:51.390Z,51.40
2019-03-20T11:28:20.748Z,51.30
2019-03-20T11:30:49.737Z,52.00
2019-03-20T11:33:18.717Z,51.20
2019-03-20T11:35:47.693Z,49.90
2019-03-20T11:38:16.744Z,54.40
2019-03-20T11:40:45.649Z,51.60
2019-03-20T11:43:15.203Z,49.70
2019-03-20T11:45:44.127Z,51.00
2019-03-20T11:48:13.477Z,50.40
2019-03-20T11:50:42.491Z,50.70
2019-03-20T11:53:11.793Z,50.30
2019-03-20T11:55:40.771Z,49.50
2019-03-20T11:58:09.864Z,52.80
2019-03-20T12:00:38.971Z,52.50
2019-03-20T12:03:08.251Z,50.10
2019-03-20T12:05:37.873Z,50.40
2019-03-20T12:08:06.996Z,50.80
2019-03-20T12:10:36.234Z,48.70
2019-03-20T12:13:05.333Z,52.40
2019-03-20T12:15:34.583Z,49.10
2019-03-20T12:18:03.903Z,52.30
2019-03-20T12:20:32.916Z,51.00
2019-03-20T12:23:02.235Z,50.30
2019-03-20T12:25:32.033Z,51.00
2019-03-20T12:28:02.203Z,49.70
2019-03-20T12:30:31.302Z,51.50
2019-03-20T12:33:00.682Z,50.80
2019-03-20T12:35:30.551Z,50.00
2019-03-20T12:37:59.569Z,49.50
2019-03-20T12:40:29.440Z,52.30
2019-03-20T12:42:58.538Z,51.20
2019-03-20T12:45:29.496Z,52.40
2019-03-20T12:47:58.847Z,52.30
2019-03-20T12:50:28.287Z,52.40
2019-03-20T12:52:57.443Z,50.90
2019-03-20T12:55:26.530Z,52.10
2019-03-20T12:57:55.781Z,50.20
2019-03-20T13:00:27.295Z,52.50
2019-03-20T13:02:55.695Z,51.50
2019-03-20T13:05:24.845Z,52.40
2019-03-20T13:07:53.766Z,52.60
2019-03-20T13:10:22.868Z,53.30
2019-03-20T13:12:51.893Z,53.50
2019-03-20T13:15:22.191Z,53.10
2019-03-20T13:17:51.663Z,54.80
2019-03-20T13:20:20.855Z,54.10
2019-03-20T13:22:52.998Z,53.40
2019-03-20T13:25:22.025Z,53.80
2019-03-20T13:27:51.231Z,52.50
2019-03-20T13:30:22.867Z,54.50
2019-03-20T13:32:51.855Z,54.80
2019-03-20T13:35:21.151Z,55.40
2019-03-20T13:37:50.509Z,55.10
2019-03-20T13:40:19.519Z,53.10
2019-03-20T13:42:48.445Z,53.90
2019-03-20T13:45:17.803Z,53.50
2019-03-20T13:47:47.140Z,53.40
2019-03-20T13:50:16.402Z,53.80
2019-03-20T13:52:45.739Z,54.70
2019-03-20T13:55:14.909Z,53.60
2019-03-20T13:57:44.279Z,54.50
2019-03-20T14:00:15.967Z,54.10
2019-03-20T14:02:45.329Z,53.60
2019-03-20T14:05:14.671Z,54.90
2019-03-20T14:07:43.678Z,54.60
2019-03-20T14:10:24.277Z,55.20
2019-03-20T14:12:45.595Z,55.70
2019-03-20T14:15:14.833Z,55.00
2019-03-20T14:17:43.746Z,54.70
2019-03-20T14:20:15.021Z,55.50
2019-03-20T14:22:44.190Z,55.20
2019-03-20T14:25:13.306Z,55.20
2019-03-20T14:27:42.327Z,55.70
2019-03-20T14:30:20.447Z,54.20
2019-03-20T14:32:49.605Z,54.40
2019-03-20T14:35:18.566Z,55.30
2019-03-20T14:37:47.604Z,54.20
2019-03-20T14:40:17.742Z,53.30
2019-03-20T14:42:46.968Z,54.50
2019-03-20T14:45:16.151Z,55.30
2019-03-20T14:47:45.379Z,56.00
2019-03-20T14:50:19.047Z,54.80
2019-03-20T14:52:48.147Z,55.20
2019-03-20T14:55:17.217Z,56.00
2019-03-20T14:57:46.289Z,56.30
2019-03-20T15:00:17.691Z,57.40
2019-03-20T15:02:46.825Z,56.40
2019-03-20T15:05:16.558Z,57.20
2019-03-20T15:07:45.561Z,58.00
2019-03-20T15:10:16.415Z,57.30
2019-03-20T15:12:45.413Z,58.00
2019-03-20T15:15:18.160Z,57.10
2019-03-20T15:17:47.226Z,56.90
2019-03-20T15:20:16.522Z,56.80
2019-03-20T15:22:45.926Z,57.00
2019-03-20T15:25:15.367Z,57.90
2019-03-20T15:27:44.292Z,57.60
2019-03-20T15:30:15.079Z,57.20
2019-03-20T15:32:44.397Z,57.40
2019-03-20T15:35:13.683Z,57.30
2019-03-20T15:37:42.674Z,57.80
2019-03-20T15:40:13.750Z,57.60
2019-03-20T15:42:42.679Z,57.50
2019-03-20T15:45:12.612Z,57.80
2019-03-20T15:47:41.542Z,57.90
2019-03-20T15:50:11.859Z,58.10
2019-03-20T15:52:41.227Z,59.10
2019-03-20T15:55:12.898Z,59.10
2019-03-20T15:57:41.912Z,59.90
2019-03-20T16:00:14.127Z,59.00
2019-03-20T16:02:43.145Z,58.80
2019-03-20T16:05:12.256Z,59.20
2019-03-20T16:07:41.630Z,59.30
2019-03-20T16:10:16.039Z,58.40
2019-03-20T16:12:45.415Z,58.70
2019-03-20T16:15:15.967Z,58.70
2019-03-20T16:17:45.375Z,59.50
2019-03-20T16:20:17.222Z,60.30
2019-03-20T16:22:46.301Z,58.90
2019-03-20T16:25:15.663Z,59.70
2019-03-20T16:27:45.013Z,60.40
2019-03-20T16:30:19.170Z,59.50
2019-03-20T16:32:48.195Z,61.50
2019-03-20T16:35:17.461Z,61.70
2019-03-20T16:37:46.567Z,62.60
2019-03-20T16:40:17.702Z,61.90
2019-03-20T16:42:46.821Z,61.30
2019-03-20T16:45:23.960Z,62.70
2019-03-20T16:47:52.966Z,63.30
2019-03-20T16:50:22.041Z,63.40
2019-03-20T16:52:51.364Z,65.40
2019-03-20T16:55:20.439Z,66.00
2019-03-20T16:57:49.710Z,67.20
2019-03-20T17:00:23.607Z,67.70
2019-03-20T17:02:52.626Z,67.50
2019-03-20T17:05:22.218Z,67.90
2019-03-20T17:07:51.152Z,69.00
2019-03-20T17:10:22.378Z,70.90
2019-03-20T17:12:51.745Z,72.80
2019-03-20T17:15:22.407Z,74.90
2019-03-20T17:17:51.418Z,76.10
2019-03-20T17:20:20.355Z,78.20
2019-03-20T17:22:49.476Z,80.60
2019-03-20T17:25:18.452Z,84.30
2019-03-20T17:27:47.803Z,87.90
2019-03-20T17:30:22.055Z,90.50
2019-03-20T17:32:50.981Z,91.20
2019-03-20T17:35:20.036Z,93.10
2019-03-20T17:37:48.987Z,93.80
2019-03-20T17:40:18.719Z,94.50
2019-03-20T17:42:48.371Z,96.00
2019-03-20T17:45:19.290Z,96.30
2019-03-20T17:47:48.236Z,96.60
2019-03-20T17:50:22.488Z,97.40
2019-03-20T17:52:51.514Z,98.50
2019-03-20T17:55:20.568Z,99.90
2019-03-20T17:57:49.682Z,99.90
2019-03-20T18:00:37.078Z,99.90
2019-03-20T18:03:06.876Z,99.90
2019-03-20T18:05:36.451Z,99.90
2019-03-20T18:08:05.809Z,99.90
2019-03-20T18:10:34.968Z,99.90
2019-03-20T18:13:04.603Z,99.90
2019-03-20T18:15:33.722Z,99.90
2019-03-20T18:18:02.751Z,99.90
2019-03-20T18:20:31.797Z,99.90
2019-03-20T18:23:00.750Z,99.90
2019-03-20T18:25:29.741Z,99.90
2019-03-20T18:27:58.766Z,99.90
2019-03-20T18:30:27.786Z,99.90
2019-03-20T18:32:56.868Z,99.90
2019-03-20T18:35:25.866Z,99.90
2019-03-20T18:37:54.903Z,99.90
2019-03-20T18:40:24.128Z,99.90
2019-03-20T18:42:53.439Z,99.90
2019-03-20T18:45:22.523Z,99.90
2019-03-20T18:47:51.903Z,99.90
2019-03-20T18:50:21.092Z,99.90
2019-03-20T18:52:50.921Z,99.90
2019-03-20T18:55:20.123Z,99.90
2019-03-20T18:57:49.502Z,99.90
2019-03-20T19:00:20.849Z,99.90
2019-03-20T19:02:50.200Z,99.90
2019-03-20T19:05:47.436Z,99.90
2019-03-20T19:08:16.541Z,99.90
2019-03-20T19:10:45.800Z,99.90
2019-03-20T19:13:14.890Z,99.90
2019-03-20T19:15:43.957Z,99.90
2019-03-20T19:18:13.027Z,99.90
2019-03-20T19:20:42.570Z,99.90
2019-03-20T19:23:11.634Z,99.90
2019-03-20T19:25:40.617Z,99.90
2019-03-20T19:28:10.301Z,99.90
2019-03-20T19:30:39.324Z,99.90
2019-03-20T19:33:09.851Z,99.90
2019-03-20T19:35:39.076Z,99.90
2019-03-20T19:38:08.089Z,99.90
2019-03-20T19:40:37.135Z,99.90
2019-03-20T19:43:06.213Z,99.90
2019-03-20T19:45:35.437Z,99.90
2019-03-20T19:48:04.470Z,99.90
2019-03-20T19:50:33.447Z,99.90
2019-03-20T19:53:02.775Z,99.90
2019-03-20T19:55:31.759Z,99.90
2019-03-20T19:58:01.360Z,99.90
2019-03-20T20:00:30.445Z,99.90
2019-03-20T20:02:59.664Z,99.90
2019-03-20T20:05:28.607Z,99.90
2019-03-20T20:07:58.139Z,99.90
2019-03-20T20:10:27.159Z,99.90
2019-03-20T20:12:56.118Z,99.90
2019-03-20T20:15:25.147Z,99.90
2019-03-20T20:17:54.472Z,99.90
2019-03-20T20:20:23.503Z,99.90
2019-03-20T20:22:52.485Z,99.90
2019-03-20T20:25:21.503Z,99.90
2019-03-20T20:27:50.798Z,99.90
2019-03-20T20:30:19.918Z,99.90
2019-03-20T20:32:49.287Z,99.90
2019-03-20T20:35:18.231Z,99.90
2019-03-20T20:37:47.260Z,99.90
2019-03-20T20:40:17.216Z,99.90
2019-03-20T20:42:46.212Z,99.90
2019-03-20T20:45:15.866Z,99.90
2019-03-20T20:47:44.965Z,99.90
2019-03-20T20:50:14.426Z,99.90
2019-03-20T20:52:43.435Z,99.90
2019-03-20T20:55:13.202Z,99.90
2019-03-20T20:57:42.458Z,99.90
2019-03-20T21:00:14.611Z,99.90
2019-03-20T21:02:43.797Z,99.90
2019-03-20T21:05:12.810Z,99.90
2019-03-20T21:07:41.940Z,99.90
2019-03-20T21:10:12.188Z,99.90
2019-03-20T21:12:42.681Z,99.90
2019-03-20T21:15:38.626Z,99.90
2019-03-20T21:18:59.348Z,99.90
2019-03-20T21:21:41.338Z,99.90
2019-03-20T21:24:29.988Z,99.90
2019-03-20T21:27:43.323Z,99.90
2019-03-20T21:30:48.960Z,99.90
2019-03-20T21:33:31.435Z,99.90
2019-03-20T21:36:50.633Z,99.90
2019-03-20T21:39:20.094Z,99.90
2019-03-20T21:42:41.386Z,99.90
2019-03-20T21:46:03.818Z,99.90
2019-03-20T21:48:33.267Z,99.90
2019-03-20T21:51:15.931Z,99.90
2019-03-20T21:54:42.190Z,99.90
2019-03-20T21:57:52.030Z,99.90
2019-03-20T22:00:57.256Z,99.90
2019-03-20T22:03:26.717Z,99.90
2019-03-20T22:06:32.762Z,99.90
2019-03-20T22:09:08.515Z,99.90
2019-03-20T22:12:30.113Z,99.90
2019-03-20T22:15:05.295Z,99.90
2019-03-20T22:18:05.929Z,99.90
2019-03-20T22:21:08.695Z,99.90
2019-03-20T22:24:02.709Z,99.90
2019-03-20T22:27:08.520Z,99.90
2019-03-20T22:29:38.107Z,99.90
2019-03-20T22:32:57.009Z,99.90
2019-03-20T22:36:08.293Z,99.90
2019-03-20T22:39:13.746Z,99.90
2019-03-20T22:42:02.076Z,99.90
2019-03-20T22:44:31.683Z,99.90
2019-03-20T22:47:30.902Z,99.90
2019-03-20T22:50:23.015Z,99.90
2019-03-20T22:53:42.034Z,99.90
2019-03-20T22:56:59.682Z,99.90
2019-03-20T22:59:29.210Z,99.90
2019-03-20T23:02:18.798Z,99.90
2019-03-20T23:04:51.877Z,99.90
2019-03-20T23:07:21.421Z,99.90
2019-03-20T23:09:50.887Z,99.90
2019-03-20T23:12:20.771Z,99.90
2019-03-20T23:14:50.732Z,99.90
2019-03-20T23:17:20.606Z,99.90
2019-03-20T23:19:51.372Z,99.90
2019-03-20T23:22:20.831Z,99.90
2019-03-20T23:24:50.308Z,99.90
2019-03-20T23:27:23.781Z,99.90
2019-03-20T23:29:53.329Z,99.90
2019-03-20T23:32:22.847Z,99.90
2019-03-20T23:34:52.338Z,99.90
2019-03-20T23:37:21.790Z,99.90
2019-03-20T23:39:51.279Z,99.90
2019-03-20T23:42:21.895Z,99.90
2019-03-20T23:44:51.390Z,99.90
2019-03-20T23:47:27.175Z,99.90
2019-03-20T23:49:56.671Z,99.90
2019-03-20T23:52:26.766Z,99.90
2019-03-20T23:54:57.330Z,99.90
2019-03-20T23:57:27.097Z,99.90
2019-03-20T23:59:58.897Z,99.90
